sensor_id;sensor_type;location;lat;lon;timestamp;pressure;altitude;pressure_sealevel;temperature;humidity
56582;BME280;42463;52.214;21.238;2023-07-02T00:01:51;99142.37;;;20.50;66.31
56582;BME280;42463;52.214;21.238;2023-07-02T00:03:55;99137.35;;;20.48;66.32
56582;BME280;42463;52.214;21.238;2023-07-02T00:06:00;99139.98;;;20.46;66.43
56582;BME280;42463;52.214;21.238;2023-07-02T00:08:04;99139.11;;;20.44;66.51
56582;BME280;42463;52.214;21.238;2023-07-02T00:10:09;99137.52;;;20.43;66.72
56582;BME280;42463;52.214;21.238;2023-07-02T00:12:13;99137.13;;;20.40;66.64
56582;BME280;42463;52.214;21.238;2023-07-02T00:14:18;99132.32;;;20.38;66.79
56582;BME280;42463;52.214;21.238;2023-07-02T00:16:22;99136.50;;;20.36;67.07
56582;BME280;42463;52.214;21.238;2023-07-02T00:18:26;99138.51;;;20.34;66.93
56582;BME280;42463;52.214;21.238;2023-07-02T00:20:37;99137.17;;;20.32;67.22
56582;BME280;42463;52.214;21.238;2023-07-02T00:22:41;99135.05;;;20.29;67.38
56582;BME280;42463;52.214;21.238;2023-07-02T00:24:48;99136.95;;;20.27;67.79
56582;BME280;42463;52.214;21.238;2023-07-02T00:26:53;99133.45;;;20.23;68.00
56582;BME280;42463;52.214;21.238;2023-07-02T00:28:58;99139.30;;;20.18;68.23
56582;BME280;42463;52.214;21.238;2023-07-02T00:31:02;99137.73;;;20.15;68.63
56582;BME280;42463;52.214;21.238;2023-07-02T00:33:06;99134.54;;;20.14;69.02
56582;BME280;42463;52.214;21.238;2023-07-02T00:35:11;99135.90;;;20.12;69.18
56582;BME280;42463;52.214;21.238;2023-07-02T00:37:15;99134.93;;;20.12;69.35
56582;BME280;42463;52.214;21.238;2023-07-02T00:39:19;99139.00;;;20.11;69.38
56582;BME280;42463;52.214;21.238;2023-07-02T00:41:23;99136.09;;;20.10;69.38
56582;BME280;42463;52.214;21.238;2023-07-02T00:43:28;99134.97;;;20.10;69.52
56582;BME280;42463;52.214;21.238;2023-07-02T00:45:33;99136.11;;;20.08;69.73
56582;BME280;42463;52.214;21.238;2023-07-02T00:47:37;99134.52;;;20.07;69.65
56582;BME280;42463;52.214;21.238;2023-07-02T00:49:41;99132.99;;;20.07;69.78
56582;BME280;42463;52.214;21.238;2023-07-02T00:51:45;99133.35;;;20.05;69.78
56582;BME280;42463;52.214;21.238;2023-07-02T00:53:50;99134.06;;;20.03;69.76
56582;BME280;42463;52.214;21.238;2023-07-02T00:55:55;99133.89;;;20.02;69.78
56582;BME280;42463;52.214;21.238;2023-07-02T00:57:59;99129.77;;;20.02;70.01
56582;BME280;42463;52.214;21.238;2023-07-02T01:03:12;99129.00;;;19.99;70.18
56582;BME280;42463;52.214;21.238;2023-07-02T01:05:16;99129.81;;;20.00;70.15
56582;BME280;42463;52.214;21.238;2023-07-02T01:07:24;99124.97;;;19.99;70.23
56582;BME280;42463;52.214;21.238;2023-07-02T01:09:28;99124.40;;;19.98;70.35
56582;BME280;42463;52.214;21.238;2023-07-02T01:11:33;99126.53;;;19.98;70.47
56582;BME280;42463;52.214;21.238;2023-07-02T01:13:38;99123.83;;;19.97;70.51
56582;BME280;42463;52.214;21.238;2023-07-02T01:15:43;99125.59;;;19.96;70.39
56582;BME280;42463;52.214;21.238;2023-07-02T01:17:48;99126.48;;;19.94;70.54
56582;BME280;42463;52.214;21.238;2023-07-02T01:19:52;99127.80;;;19.94;70.75
56582;BME280;42463;52.214;21.238;2023-07-02T01:21:57;99126.92;;;19.93;70.64
56582;BME280;42463;52.214;21.238;2023-07-02T01:24:03;99123.67;;;19.92;70.65
56582;BME280;42463;52.214;21.238;2023-07-02T01:26:08;99124.48;;;19.90;70.71
56582;BME280;42463;52.214;21.238;2023-07-02T01:28:12;99121.52;;;19.88;70.78
56582;BME280;42463;52.214;21.238;2023-07-02T01:30:17;99118.80;;;19.87;70.82
56582;BME280;42463;52.214;21.238;2023-07-02T01:32:21;99116.42;;;19.87;70.75
56582;BME280;42463;52.214;21.238;2023-07-02T01:34:27;99113.29;;;19.84;70.74
56582;BME280;42463;52.214;21.238;2023-07-02T01:36:31;99115.19;;;19.82;70.79
56582;BME280;42463;52.214;21.238;2023-07-02T01:38:35;99113.80;;;19.80;70.87
56582;BME280;42463;52.214;21.238;2023-07-02T01:40:40;99102.84;;;19.79;70.86
56582;BME280;42463;52.214;21.238;2023-07-02T01:42:44;99101.96;;;19.81;71.10
56582;BME280;42463;52.214;21.238;2023-07-02T01:44:48;99104.16;;;19.84;71.08
56582;BME280;42463;52.214;21.238;2023-07-02T01:46:54;99103.45;;;19.84;70.88
56582;BME280;42463;52.214;21.238;2023-07-02T01:49:00;99103.79;;;19.82;70.68
56582;BME280;42463;52.214;21.238;2023-07-02T01:51:04;99108.89;;;19.79;70.67
56582;BME280;42463;52.214;21.238;2023-07-02T01:53:08;99102.89;;;19.76;70.66
56582;BME280;42463;52.214;21.238;2023-07-02T01:55:12;99100.23;;;19.74;70.85
56582;BME280;42463;52.214;21.238;2023-07-02T01:57:16;99103.52;;;19.72;70.90
56582;BME280;42463;52.214;21.238;2023-07-02T01:59:20;99099.09;;;19.70;70.92
56582;BME280;42463;52.214;21.238;2023-07-02T02:01:24;99099.00;;;19.68;70.97
56582;BME280;42463;52.214;21.238;2023-07-02T02:03:28;99101.67;;;19.62;71.06
56582;BME280;42463;52.214;21.238;2023-07-02T02:05:33;99103.70;;;19.57;71.04
56582;BME280;42463;52.214;21.238;2023-07-02T02:07:38;99100.73;;;19.53;71.23
56582;BME280;42463;52.214;21.238;2023-07-02T02:09:42;99100.35;;;19.49;71.40
56582;BME280;42463;52.214;21.238;2023-07-02T02:11:47;99097.83;;;19.46;71.49
56582;BME280;42463;52.214;21.238;2023-07-02T02:13:52;99102.55;;;19.44;71.59
56582;BME280;42463;52.214;21.238;2023-07-02T02:15:57;99100.48;;;19.43;72.00
56582;BME280;42463;52.214;21.238;2023-07-02T02:18:01;99101.48;;;19.42;71.96
56582;BME280;42463;52.214;21.238;2023-07-02T02:20:06;99100.31;;;19.40;71.88
56582;BME280;42463;52.214;21.238;2023-07-02T02:22:11;99099.95;;;19.38;72.07
56582;BME280;42463;52.214;21.238;2023-07-02T02:24:16;99098.23;;;19.38;72.35
56582;BME280;42463;52.214;21.238;2023-07-02T02:26:20;99097.95;;;19.40;72.46
56582;BME280;42463;52.214;21.238;2023-07-02T02:28:25;99098.59;;;19.40;72.45
56582;BME280;42463;52.214;21.238;2023-07-02T02:30:29;99098.48;;;19.41;72.36
56582;BME280;42463;52.214;21.238;2023-07-02T02:32:33;99094.73;;;19.42;72.51
56582;BME280;42463;52.214;21.238;2023-07-02T02:34:38;99094.88;;;19.44;72.44
56582;BME280;42463;52.214;21.238;2023-07-02T02:36:43;99091.15;;;19.45;72.71
56582;BME280;42463;52.214;21.238;2023-07-02T02:38:47;99096.67;;;19.46;72.55
56582;BME280;42463;52.214;21.238;2023-07-02T02:40:52;99089.23;;;19.48;72.50
56582;BME280;42463;52.214;21.238;2023-07-02T02:42:57;99095.98;;;19.47;72.42
56582;BME280;42463;52.214;21.238;2023-07-02T02:45:01;99090.06;;;19.46;72.50
56582;BME280;42463;52.214;21.238;2023-07-02T02:47:06;99088.02;;;19.46;72.56
56582;BME280;42463;52.214;21.238;2023-07-02T02:49:10;99085.98;;;19.46;72.55
56582;BME280;42463;52.214;21.238;2023-07-02T02:51:14;99085.83;;;19.46;72.64
56582;BME280;42463;52.214;21.238;2023-07-02T02:53:18;99085.75;;;19.47;72.78
56582;BME280;42463;52.214;21.238;2023-07-02T02:55:23;99088.64;;;19.48;72.69
56582;BME280;42463;52.214;21.238;2023-07-02T02:57:27;99085.70;;;19.50;72.78
56582;BME280;42463;52.214;21.238;2023-07-02T02:59:31;99083.98;;;19.51;72.67
56582;BME280;42463;52.214;21.238;2023-07-02T03:01:35;99082.23;;;19.50;72.68
56582;BME280;42463;52.214;21.238;2023-07-02T03:03:39;99079.93;;;19.53;72.84
56582;BME280;42463;52.214;21.238;2023-07-02T03:05:48;99081.05;;;19.54;72.68
56582;BME280;42463;52.214;21.238;2023-07-02T03:07:52;99080.24;;;19.56;72.71
56582;BME280;42463;52.214;21.238;2023-07-02T03:09:56;99079.45;;;19.58;72.56
56582;BME280;42463;52.214;21.238;2023-07-02T03:12:01;99082.48;;;19.60;72.48
56582;BME280;42463;52.214;21.238;2023-07-02T03:14:06;99079.83;;;19.60;72.60
56582;BME280;42463;52.214;21.238;2023-07-02T03:16:10;99079.30;;;19.61;72.53
56582;BME280;42463;52.214;21.238;2023-07-02T03:18:14;99079.82;;;19.62;72.67
56582;BME280;42463;52.214;21.238;2023-07-02T03:20:18;99079.52;;;19.63;72.63
56582;BME280;42463;52.214;21.238;2023-07-02T03:22:22;99080.75;;;19.65;72.57
56582;BME280;42463;52.214;21.238;2023-07-02T03:24:27;99082.41;;;19.65;72.45
56582;BME280;42463;52.214;21.238;2023-07-02T03:26:31;99085.05;;;19.63;72.53
56582;BME280;42463;52.214;21.238;2023-07-02T03:28:35;99084.36;;;19.64;72.39
56582;BME280;42463;52.214;21.238;2023-07-02T03:30:39;99081.77;;;19.64;72.40
56582;BME280;42463;52.214;21.238;2023-07-02T03:32:43;99083.14;;;19.66;72.56
56582;BME280;42463;52.214;21.238;2023-07-02T03:34:47;99080.41;;;19.66;72.45
56582;BME280;42463;52.214;21.238;2023-07-02T03:36:52;99077.96;;;19.66;72.56
56582;BME280;42463;52.214;21.238;2023-07-02T03:38:56;99076.53;;;19.66;72.38
56582;BME280;42463;52.214;21.238;2023-07-02T03:41:00;99075.32;;;19.64;72.44
56582;BME280;42463;52.214;21.238;2023-07-02T03:43:04;99076.17;;;19.66;72.58
56582;BME280;42463;52.214;21.238;2023-07-02T03:45:09;99080.98;;;19.67;72.41
56582;BME280;42463;52.214;21.238;2023-07-02T03:47:13;99080.30;;;19.68;72.47
56582;BME280;42463;52.214;21.238;2023-07-02T03:49:19;99077.97;;;19.69;72.53
56582;BME280;42463;52.214;21.238;2023-07-02T03:51:23;99081.89;;;19.71;72.54
56582;BME280;42463;52.214;21.238;2023-07-02T03:53:27;99078.70;;;19.72;72.43
56582;BME280;42463;52.214;21.238;2023-07-02T03:55:31;99078.35;;;19.74;72.54
56582;BME280;42463;52.214;21.238;2023-07-02T03:57:35;99075.71;;;19.75;72.33
56582;BME280;42463;52.214;21.238;2023-07-02T03:59:39;99076.20;;;19.75;72.36
56582;BME280;42463;52.214;21.238;2023-07-02T04:01:43;99076.64;;;19.76;72.42
56582;BME280;42463;52.214;21.238;2023-07-02T04:03:49;99074.27;;;19.78;72.53
56582;BME280;42463;52.214;21.238;2023-07-02T04:05:53;99077.04;;;19.82;72.33
56582;BME280;42463;52.214;21.238;2023-07-02T04:07:58;99074.01;;;19.80;72.11
56582;BME280;42463;52.214;21.238;2023-07-02T04:10:02;99071.36;;;19.78;72.06
56582;BME280;42463;52.214;21.238;2023-07-02T04:12:07;99073.05;;;19.80;72.14
56582;BME280;42463;52.214;21.238;2023-07-02T04:14:12;99071.92;;;19.81;72.10
56582;BME280;42463;52.214;21.238;2023-07-02T04:16:16;99073.27;;;19.84;72.09
56582;BME280;42463;52.214;21.238;2023-07-02T04:18:20;99070.30;;;19.88;71.95
56582;BME280;42463;52.214;21.238;2023-07-02T04:20:24;99066.89;;;19.90;72.03
56582;BME280;42463;52.214;21.238;2023-07-02T04:22:28;99067.48;;;19.93;72.04
56582;BME280;42463;52.214;21.238;2023-07-02T04:24:32;99069.23;;;19.97;71.86
56582;BME280;42463;52.214;21.238;2023-07-02T04:26:37;99068.42;;;20.01;71.72
56582;BME280;42463;52.214;21.238;2023-07-02T04:28:45;99067.88;;;20.04;71.77
56582;BME280;42463;52.214;21.238;2023-07-02T04:30:49;99069.46;;;20.08;71.49
56582;BME280;42463;52.214;21.238;2023-07-02T04:32:55;99063.63;;;20.10;71.19
56582;BME280;42463;52.214;21.238;2023-07-02T04:34:59;99065.58;;;20.12;71.16
56582;BME280;42463;52.214;21.238;2023-07-02T04:37:04;99062.06;;;20.13;70.93
56582;BME280;42463;52.214;21.238;2023-07-02T04:39:09;99063.67;;;20.15;71.03
56582;BME280;42463;52.214;21.238;2023-07-02T04:41:14;99062.59;;;20.15;70.78
56582;BME280;42463;52.214;21.238;2023-07-02T04:43:18;99060.75;;;20.20;70.85
56582;BME280;42463;52.214;21.238;2023-07-02T04:45:23;99060.67;;;20.22;70.73
56582;BME280;42463;52.214;21.238;2023-07-02T04:47:27;99064.70;;;20.26;70.68
56582;BME280;42463;52.214;21.238;2023-07-02T04:49:31;99066.04;;;20.29;70.51
56582;BME280;42463;52.214;21.238;2023-07-02T04:51:35;99066.66;;;20.31;70.28
56582;BME280;42463;52.214;21.238;2023-07-02T04:53:39;99064.70;;;20.35;70.36
56582;BME280;42463;52.214;21.238;2023-07-02T04:55:44;99065.80;;;20.37;70.05
56582;BME280;42463;52.214;21.238;2023-07-02T04:57:48;99069.12;;;20.38;69.96
56582;BME280;42463;52.214;21.238;2023-07-02T04:59:52;99066.40;;;20.39;69.82
56582;BME280;42463;52.214;21.238;2023-07-02T05:01:57;99064.33;;;20.40;70.00
56582;BME280;42463;52.214;21.238;2023-07-02T05:04:01;99066.67;;;20.42;69.97
56582;BME280;42463;52.214;21.238;2023-07-02T05:06:05;99065.48;;;20.45;69.76
56582;BME280;42463;52.214;21.238;2023-07-02T05:08:10;99068.02;;;20.49;69.70
56582;BME280;42463;52.214;21.238;2023-07-02T05:10:14;99068.39;;;20.48;69.27
56582;BME280;42463;52.214;21.238;2023-07-02T05:12:18;99078.16;;;20.49;69.37
56582;BME280;42463;52.214;21.238;2023-07-02T05:14:22;99084.71;;;20.49;69.26
56582;BME280;42463;52.214;21.238;2023-07-02T05:16:27;99088.44;;;20.50;69.40
56582;BME280;42463;52.214;21.238;2023-07-02T05:18:31;99087.48;;;20.53;69.22
56582;BME280;42463;52.214;21.238;2023-07-02T05:20:35;99084.94;;;20.52;68.83
56582;BME280;42463;52.214;21.238;2023-07-02T05:22:39;99085.86;;;20.51;68.68
56582;BME280;42463;52.214;21.238;2023-07-02T05:24:43;99084.30;;;20.51;68.81
56582;BME280;42463;52.214;21.238;2023-07-02T05:26:49;99085.52;;;20.53;69.00
56582;BME280;42463;52.214;21.238;2023-07-02T05:28:53;99088.02;;;20.58;69.26
56582;BME280;42463;52.214;21.238;2023-07-02T05:30:57;99086.23;;;20.61;68.66
56582;BME280;42463;52.214;21.238;2023-07-02T05:33:02;99086.26;;;20.62;68.45
56582;BME280;42463;52.214;21.238;2023-07-02T05:35:06;99091.23;;;20.63;68.31
56582;BME280;42463;52.214;21.238;2023-07-02T05:37:11;99086.64;;;20.65;68.18
56582;BME280;42463;52.214;21.238;2023-07-02T05:39:15;99083.86;;;20.67;67.90
56582;BME280;42463;52.214;21.238;2023-07-02T05:41:19;99085.29;;;20.70;68.05
56582;BME280;42463;52.214;21.238;2023-07-02T05:43:24;99083.96;;;20.74;67.92
56582;BME280;42463;52.214;21.238;2023-07-02T05:45:28;99085.69;;;20.77;67.62
56582;BME280;42463;52.214;21.238;2023-07-02T05:47:33;99086.11;;;20.78;67.31
56582;BME280;42463;52.214;21.238;2023-07-02T05:49:37;99085.33;;;20.81;67.32
56582;BME280;42463;52.214;21.238;2023-07-02T05:51:41;99085.80;;;20.84;67.15
56582;BME280;42463;52.214;21.238;2023-07-02T05:53:45;99087.13;;;20.86;66.68
56582;BME280;42463;52.214;21.238;2023-07-02T05:55:50;99086.00;;;20.88;66.48
56582;BME280;42463;52.214;21.238;2023-07-02T05:57:54;99087.16;;;20.90;66.61
56582;BME280;42463;52.214;21.238;2023-07-02T06:00:00;99089.11;;;20.93;66.27
56582;BME280;42463;52.214;21.238;2023-07-02T06:02:15;99091.18;;;20.94;66.28
56582;BME280;42463;52.214;21.238;2023-07-02T06:04:19;99091.79;;;20.96;66.07
56582;BME280;42463;52.214;21.238;2023-07-02T06:06:24;99089.23;;;20.97;65.50
56582;BME280;42463;52.214;21.238;2023-07-02T06:08:28;99088.14;;;21.01;65.93
56582;BME280;42463;52.214;21.238;2023-07-02T06:10:32;99085.42;;;21.06;65.44
56582;BME280;42463;52.214;21.238;2023-07-02T06:12:36;99085.13;;;21.10;65.31
56582;BME280;42463;52.214;21.238;2023-07-02T06:14:41;99082.94;;;21.14;65.15
56582;BME280;42463;52.214;21.238;2023-07-02T06:16:45;99081.65;;;21.16;64.80
56582;BME280;42463;52.214;21.238;2023-07-02T06:18:50;99081.41;;;21.19;64.32
56582;BME280;42463;52.214;21.238;2023-07-02T06:20:54;99079.63;;;21.23;64.11
56582;BME280;42463;52.214;21.238;2023-07-02T06:22:58;99079.67;;;21.24;63.58
56582;BME280;42463;52.214;21.238;2023-07-02T06:25:03;99075.11;;;21.25;63.46
56582;BME280;42463;52.214;21.238;2023-07-02T06:27:08;99077.99;;;21.26;63.20
56582;BME280;42463;52.214;21.238;2023-07-02T06:29:12;99080.54;;;21.27;63.20
56582;BME280;42463;52.214;21.238;2023-07-02T06:31:16;99087.04;;;21.29;63.53
56582;BME280;42463;52.214;21.238;2023-07-02T06:33:21;99091.42;;;21.31;63.27
56582;BME280;42463;52.214;21.238;2023-07-02T06:35:25;99086.80;;;21.35;63.14
56582;BME280;42463;52.214;21.238;2023-07-02T06:37:29;99089.00;;;21.40;62.98
56582;BME280;42463;52.214;21.238;2023-07-02T06:39:34;99090.45;;;21.44;62.73
56582;BME280;42463;52.214;21.238;2023-07-02T06:41:38;99089.43;;;21.47;62.28
56582;BME280;42463;52.214;21.238;2023-07-02T06:43:42;99091.73;;;21.48;61.70
56582;BME280;42463;52.214;21.238;2023-07-02T06:45:47;99095.04;;;21.51;61.36
56582;BME280;42463;52.214;21.238;2023-07-02T06:47:51;99093.88;;;21.55;61.20
56582;BME280;42463;52.214;21.238;2023-07-02T06:49:56;99093.37;;;21.57;60.90
56582;BME280;42463;52.214;21.238;2023-07-02T06:52:01;99088.77;;;21.59;61.12
56582;BME280;42463;52.214;21.238;2023-07-02T06:54:05;99088.30;;;21.63;60.87
56582;BME280;42463;52.214;21.238;2023-07-02T06:56:09;99086.79;;;21.66;60.66
56582;BME280;42463;52.214;21.238;2023-07-02T06:58:14;99089.55;;;21.71;60.11
56582;BME280;42463;52.214;21.238;2023-07-02T07:00:19;99092.20;;;21.76;60.11
56582;BME280;42463;52.214;21.238;2023-07-02T07:02:23;99094.85;;;21.81;60.07
56582;BME280;42463;52.214;21.238;2023-07-02T07:04:27;99097.50;;;21.86;60.17
56582;BME280;42463;52.214;21.238;2023-07-02T07:06:32;99094.15;;;21.91;60.01
56582;BME280;42463;52.214;21.238;2023-07-02T07:08:38;99094.66;;;21.97;59.89
56582;BME280;42463;52.214;21.238;2023-07-02T07:10:44;99093.33;;;22.01;59.39
56582;BME280;42463;52.214;21.238;2023-07-02T07:12:48;99097.92;;;22.02;59.05
56582;BME280;42463;52.214;21.238;2023-07-02T07:14:53;99099.30;;;22.03;59.40
56582;BME280;42463;52.214;21.238;2023-07-02T07:16:57;99098.15;;;22.04;59.85
56582;BME280;42463;52.214;21.238;2023-07-02T07:19:02;99102.50;;;22.05;59.28
56582;BME280;42463;52.214;21.238;2023-07-02T07:21:06;99105.98;;;22.05;59.01
56582;BME280;42463;52.214;21.238;2023-07-02T07:23:11;99110.30;;;22.07;59.14
56582;BME280;42463;52.214;21.238;2023-07-02T07:25:15;99110.52;;;22.10;59.12
56582;BME280;42463;52.214;21.238;2023-07-02T07:27:20;99115.65;;;22.14;59.46
56582;BME280;42463;52.214;21.238;2023-07-02T07:29:25;99121.39;;;22.17;59.29
56582;BME280;42463;52.214;21.238;2023-07-02T07:31:29;99125.46;;;22.20;59.16
56582;BME280;42463;52.214;21.238;2023-07-02T07:33:33;99122.70;;;22.20;58.82
56582;BME280;42463;52.214;21.238;2023-07-02T07:35:37;99120.99;;;22.21;58.62
56582;BME280;42463;52.214;21.238;2023-07-02T07:37:42;99117.20;;;22.25;58.75
56582;BME280;42463;52.214;21.238;2023-07-02T07:39:46;99116.84;;;22.26;58.83
56582;BME280;42463;52.214;21.238;2023-07-02T07:41:51;99120.84;;;22.28;58.95
56582;BME280;42463;52.214;21.238;2023-07-02T07:43:56;99110.48;;;22.32;59.22
56582;BME280;42463;52.214;21.238;2023-07-02T07:46:01;99108.85;;;22.34;58.45
56582;BME280;42463;52.214;21.238;2023-07-02T07:48:06;99120.21;;;22.37;58.75
56582;BME280;42463;52.214;21.238;2023-07-02T07:50:11;99129.69;;;22.37;59.01
56582;BME280;42463;52.214;21.238;2023-07-02T07:52:15;99132.71;;;22.39;59.03
56582;BME280;42463;52.214;21.238;2023-07-02T07:54:20;99138.60;;;22.41;59.08
56582;BME280;42463;52.214;21.238;2023-07-02T07:56:24;99142.89;;;22.42;58.71
56582;BME280;42463;52.214;21.238;2023-07-02T07:58:29;99140.13;;;22.42;58.63
56582;BME280;42463;52.214;21.238;2023-07-02T08:00:35;99147.10;;;22.39;58.13
56582;BME280;42463;52.214;21.238;2023-07-02T08:02:40;99148.59;;;22.39;58.12
56582;BME280;42463;52.214;21.238;2023-07-02T08:04:45;99151.68;;;22.39;57.74
56582;BME280;42463;52.214;21.238;2023-07-02T08:06:49;99152.00;;;22.36;57.90
56582;BME280;42463;52.214;21.238;2023-07-02T08:08:53;99154.30;;;22.32;58.19
56582;BME280;42463;52.214;21.238;2023-07-02T08:10:57;99151.02;;;22.30;58.68
56582;BME280;42463;52.214;21.238;2023-07-02T08:13:01;99151.17;;;22.30;58.88
56582;BME280;42463;52.214;21.238;2023-07-02T08:15:07;99150.89;;;22.32;59.38
56582;BME280;42463;52.214;21.238;2023-07-02T08:17:11;99151.87;;;22.33;59.25
56582;BME280;42463;52.214;21.238;2023-07-02T08:19:16;99156.38;;;22.34;59.39
56582;BME280;42463;52.214;21.238;2023-07-02T08:21:20;99148.24;;;22.34;59.44
56582;BME280;42463;52.214;21.238;2023-07-02T08:23:25;99155.46;;;22.35;59.52
56582;BME280;42463;52.214;21.238;2023-07-02T08:25:29;99160.35;;;22.35;59.45
56582;BME280;42463;52.214;21.238;2023-07-02T08:27:34;99158.01;;;22.32;59.58
56582;BME280;42463;52.214;21.238;2023-07-02T08:29:38;99161.41;;;22.28;59.70
56582;BME280;42463;52.214;21.238;2023-07-02T08:31:43;99156.59;;;22.25;60.13
56582;BME280;42463;52.214;21.238;2023-07-02T08:33:47;99159.55;;;22.19;60.04
56582;BME280;42463;52.214;21.238;2023-07-02T08:35:51;99161.55;;;22.17;60.17
56582;BME280;42463;52.214;21.238;2023-07-02T08:37:56;99165.77;;;22.15;60.32
56582;BME280;42463;52.214;21.238;2023-07-02T08:40:00;99169.23;;;22.14;60.70
56582;BME280;42463;52.214;21.238;2023-07-02T08:42:05;99167.63;;;22.17;60.89
56582;BME280;42463;52.214;21.238;2023-07-02T08:44:09;99171.23;;;22.23;61.04
56582;BME280;42463;52.214;21.238;2023-07-02T08:46:15;99166.18;;;22.30;61.28
56582;BME280;42463;52.214;21.238;2023-07-02T08:48:19;99166.39;;;22.37;61.53
56582;BME280;42463;52.214;21.238;2023-07-02T08:50:25;99172.30;;;22.44;61.33
56582;BME280;42463;52.214;21.238;2023-07-02T08:52:30;99170.41;;;22.48;61.14
56582;BME280;42463;52.214;21.238;2023-07-02T08:54:34;99171.52;;;22.48;60.47
56582;BME280;42463;52.214;21.238;2023-07-02T08:56:39;99173.58;;;22.48;60.45
56582;BME280;42463;52.214;21.238;2023-07-02T08:58:44;99171.11;;;22.47;60.57
56582;BME280;42463;52.214;21.238;2023-07-02T09:03:13;99173.41;;;22.40;60.11
56582;BME280;42463;52.214;21.238;2023-07-02T09:05:19;99172.78;;;22.37;60.41
56582;BME280;42463;52.214;21.238;2023-07-02T09:07:23;99172.27;;;22.34;60.56
56582;BME280;42463;52.214;21.238;2023-07-02T09:09:27;99175.79;;;22.29;60.68
56582;BME280;42463;52.214;21.238;2023-07-02T09:11:32;99172.96;;;22.26;61.28
56582;BME280;42463;52.214;21.238;2023-07-02T09:13:42;99176.70;;;22.24;60.88
56582;BME280;42463;52.214;21.238;2023-07-02T09:15:47;99176.55;;;22.24;60.69
56582;BME280;42463;52.214;21.238;2023-07-02T09:17:52;99177.00;;;22.27;60.96
56582;BME280;42463;52.214;21.238;2023-07-02T09:19:57;99179.58;;;22.33;61.13
56582;BME280;42463;52.214;21.238;2023-07-02T09:22:04;99180.84;;;22.37;60.61
56582;BME280;42463;52.214;21.238;2023-07-02T09:24:18;99183.37;;;22.37;60.66
56582;BME280;42463;52.214;21.238;2023-07-02T09:26:23;99180.86;;;22.34;60.60
56582;BME280;42463;52.214;21.238;2023-07-02T09:28:27;99185.58;;;22.33;60.63
56582;BME280;42463;52.214;21.238;2023-07-02T09:30:32;99185.67;;;22.34;60.83
56582;BME280;42463;52.214;21.238;2023-07-02T09:32:36;99186.52;;;22.33;60.75
56582;BME280;42463;52.214;21.238;2023-07-02T09:34:40;99192.05;;;22.33;61.11
56582;BME280;42463;52.214;21.238;2023-07-02T09:36:45;99196.02;;;22.34;61.39
56582;BME280;42463;52.214;21.238;2023-07-02T09:38:49;99193.30;;;22.33;61.43
56582;BME280;42463;52.214;21.238;2023-07-02T09:40:53;99194.98;;;22.30;61.37
56582;BME280;42463;52.214;21.238;2023-07-02T09:42:57;99195.41;;;22.27;61.55
56582;BME280;42463;52.214;21.238;2023-07-02T09:45:03;99199.73;;;22.26;61.71
56582;BME280;42463;52.214;21.238;2023-07-02T09:47:10;99201.84;;;22.26;61.81
56582;BME280;42463;52.214;21.238;2023-07-02T09:49:16;99204.35;;;22.24;61.57
56582;BME280;42463;52.214;21.238;2023-07-02T09:51:21;99205.70;;;22.25;61.97
56582;BME280;42463;52.214;21.238;2023-07-02T09:53:27;99203.14;;;22.27;62.01
56582;BME280;42463;52.214;21.238;2023-07-02T09:55:32;99203.99;;;22.27;61.82
56582;BME280;42463;52.214;21.238;2023-07-02T09:57:36;99205.02;;;22.26;61.86
56582;BME280;42463;52.214;21.238;2023-07-02T09:59:40;99202.02;;;22.23;61.85
56582;BME280;42463;52.214;21.238;2023-07-02T10:01:45;99205.33;;;22.23;61.78
56582;BME280;42463;52.214;21.238;2023-07-02T10:03:49;99200.13;;;22.23;61.86
56582;BME280;42463;52.214;21.238;2023-07-02T10:06:01;99197.61;;;22.23;62.08
56582;BME280;42463;52.214;21.238;2023-07-02T10:08:12;99188.95;;;22.24;62.01
56582;BME280;42463;52.214;21.238;2023-07-02T10:10:26;99189.01;;;22.27;61.79
56582;BME280;42463;52.214;21.238;2023-07-02T10:12:30;99187.46;;;22.33;62.04
56582;BME280;42463;52.214;21.238;2023-07-02T10:14:41;99186.89;;;22.39;61.89
56582;BME280;42463;52.214;21.238;2023-07-02T10:16:50;99176.90;;;22.49;61.37
56582;BME280;42463;52.214;21.238;2023-07-02T10:18:54;99177.70;;;22.57;61.08
56582;BME280;42463;52.214;21.238;2023-07-02T10:20:59;99171.19;;;22.67;60.57
56582;BME280;42463;52.214;21.238;2023-07-02T10:23:03;99167.83;;;22.77;60.69
56582;BME280;42463;52.214;21.238;2023-07-02T10:25:08;99165.77;;;22.88;60.64
56582;BME280;42463;52.214;21.238;2023-07-02T10:27:13;99166.77;;;22.98;60.62
56582;BME280;42463;52.214;21.238;2023-07-02T10:29:19;99166.86;;;23.08;59.69
56582;BME280;42463;52.214;21.238;2023-07-02T10:31:24;99167.63;;;23.15;58.38
56582;BME280;42463;52.214;21.238;2023-07-02T10:33:29;99175.25;;;23.21;58.26
56582;BME280;42463;52.214;21.238;2023-07-02T10:35:33;99171.52;;;23.26;57.69
56582;BME280;42463;52.214;21.238;2023-07-02T10:37:38;99171.48;;;23.28;58.08
56582;BME280;42463;52.214;21.238;2023-07-02T10:39:42;99175.13;;;23.28;58.00
56582;BME280;42463;52.214;21.238;2023-07-02T10:41:47;99174.40;;;23.28;58.24
56582;BME280;42463;52.214;21.238;2023-07-02T10:43:52;99170.58;;;23.31;58.13
56582;BME280;42463;52.214;21.238;2023-07-02T10:45:57;99169.88;;;23.32;57.61
56582;BME280;42463;52.214;21.238;2023-07-02T10:48:04;99171.05;;;23.35;57.41
56582;BME280;42463;52.214;21.238;2023-07-02T10:50:15;99166.06;;;23.39;57.03
56582;BME280;42463;52.214;21.238;2023-07-02T10:52:19;99157.43;;;23.43;56.67
56582;BME280;42463;52.214;21.238;2023-07-02T10:54:24;99160.92;;;23.53;57.47
56582;BME280;42463;52.214;21.238;2023-07-02T10:56:28;99161.60;;;23.61;56.12
56582;BME280;42463;52.214;21.238;2023-07-02T10:58:41;99161.89;;;23.63;56.32